sensor_id;sensor_type;location;lat;lon;timestamp;pressure;altitude;pressure_sealevel;temperature;humidity
47785;BME280;35233;55.686;37.848;2023-06-04T00:01:19;99970.53;;;15.15;57.63
47785;BME280;35233;55.686;37.848;2023-06-04T00:03:44;99965.22;;;15.15;57.77
47785;BME280;35233;55.686;37.848;2023-06-04T00:06:10;99965.34;;;15.12;57.71
47785;BME280;35233;55.686;37.848;2023-06-04T00:08:35;99968.97;;;15.11;57.66
47785;BME280;35233;55.686;37.848;2023-06-04T00:11:01;99966.44;;;15.08;57.82
47785;BME280;35233;55.686;37.848;2023-06-04T00:13:26;99976.09;;;15.10;57.53
47785;BME280;35233;55.686;37.848;2023-06-04T00:15:52;99974.47;;;15.06;57.59
47785;BME280;35233;55.686;37.848;2023-06-04T00:18:17;99982.31;;;15.09;57.93
47785;BME280;35233;55.686;37.848;2023-06-04T00:20:43;99976.22;;;15.07;57.85
47785;BME280;35233;55.686;37.848;2023-06-04T00:23:08;99984.31;;;15.04;57.54
47785;BME280;35233;55.686;37.848;2023-06-04T00:25:34;99982.44;;;15.06;57.86
47785;BME280;35233;55.686;37.848;2023-06-04T00:27:59;99984.25;;;15.06;57.77
47785;BME280;35233;55.686;37.848;2023-06-04T00:30:25;99984.31;;;15.04;57.83
47785;BME280;35233;55.686;37.848;2023-06-04T00:32:51;99986.09;;;15.04;57.82
47785;BME280;35233;55.686;37.848;2023-06-04T00:35:16;99976.59;;;14.98;57.71
47785;BME280;35233;55.686;37.848;2023-06-04T00:37:41;99985.44;;;14.99;57.69
47785;BME280;35233;55.686;37.848;2023-06-04T00:40:07;99987.03;;;15.03;57.88
47785;BME280;35233;55.686;37.848;2023-06-04T00:42:33;99987.88;;;15.03;57.62
47785;BME280;35233;55.686;37.848;2023-06-04T00:44:58;99987.03;;;15.03;57.65
47785;BME280;35233;55.686;37.848;2023-06-04T00:47:24;99999.53;;;15.01;57.50
47785;BME280;35233;55.686;37.848;2023-06-04T00:49:53;99995.13;;;15.00;57.82
47785;BME280;35233;55.686;37.848;2023-06-04T00:52:18;100001.31;;;15.00;57.58
47785;BME280;35233;55.686;37.848;2023-06-04T00:54:44;99997.06;;;14.96;57.96
47785;BME280;35233;55.686;37.848;2023-06-04T00:57:10;99996.97;;;14.98;57.60
47785;BME280;35233;55.686;37.848;2023-06-04T00:59:36;100004.84;;;15.01;57.76
47785;BME280;35233;55.686;37.848;2023-06-04T01:02:11;100008.44;;;15.00;57.47
47785;BME280;35233;55.686;37.848;2023-06-04T01:07:27;100014.63;;;15.00;57.54
47785;BME280;35233;55.686;37.848;2023-06-04T01:09:56;100009.38;;;14.99;57.38
47785;BME280;35233;55.686;37.848;2023-06-04T01:12:22;100011.22;;;14.97;57.86
47785;BME280;35233;55.686;37.848;2023-06-04T01:14:48;100018.25;;;14.98;57.50
47785;BME280;35233;55.686;37.848;2023-06-04T01:17:29;100020.03;;;14.99;57.51
47785;BME280;35233;55.686;37.848;2023-06-04T01:22:47;100029.59;;;15.03;57.46
47785;BME280;35233;55.686;37.848;2023-06-04T01:25:24;100010.28;;;14.98;57.20
47785;BME280;35233;55.686;37.848;2023-06-04T01:27:53;100028.75;;;15.02;57.18
47785;BME280;35233;55.686;37.848;2023-06-04T01:30:29;100022.59;;;15.00;57.04
47785;BME280;35233;55.686;37.848;2023-06-04T01:32:55;100027.88;;;15.02;57.36
47785;BME280;35233;55.686;37.848;2023-06-04T01:35:21;100032.22;;;15.04;57.05
47785;BME280;35233;55.686;37.848;2023-06-04T01:37:47;100033.06;;;15.05;57.22
47785;BME280;35233;55.686;37.848;2023-06-04T01:40:14;100041.06;;;15.05;57.06
47785;BME280;35233;55.686;37.848;2023-06-04T01:42:43;100036.63;;;15.04;57.15
47785;BME280;35233;55.686;37.848;2023-06-04T01:45:09;100047.28;;;15.04;57.04
47785;BME280;35233;55.686;37.848;2023-06-04T01:47:35;100052.50;;;15.07;57.20
47785;BME280;35233;55.686;37.848;2023-06-04T01:50:02;100037.59;;;15.03;57.07
47785;BME280;35233;55.686;37.848;2023-06-04T01:52:27;100046.41;;;15.03;57.10
47785;BME280;35233;55.686;37.848;2023-06-04T01:54:53;100058.63;;;15.09;56.85
47785;BME280;35233;55.686;37.848;2023-06-04T01:57:20;100055.22;;;15.05;56.95
47785;BME280;35233;55.686;37.848;2023-06-04T01:59:46;100059.44;;;15.11;56.69
47785;BME280;35233;55.686;37.848;2023-06-04T02:02:12;100069.22;;;15.10;56.78
47785;BME280;35233;55.686;37.848;2023-06-04T02:04:38;100063.81;;;15.12;56.47
47785;BME280;35233;55.686;37.848;2023-06-04T02:07:09;100069.13;;;15.12;56.97
47785;BME280;35233;55.686;37.848;2023-06-04T02:09:35;100071.66;;;15.15;56.69
47785;BME280;35233;55.686;37.848;2023-06-04T02:12:01;100074.31;;;15.15;56.63
47785;BME280;35233;55.686;37.848;2023-06-04T02:14:27;100068.97;;;15.16;56.61
47785;BME280;35233;55.686;37.848;2023-06-04T02:16:52;100072.47;;;15.17;56.53
47785;BME280;35233;55.686;37.848;2023-06-04T02:19:19;100084.81;;;15.20;56.26
47785;BME280;35233;55.686;37.848;2023-06-04T02:21:46;100066.47;;;15.12;56.21
47785;BME280;35233;55.686;37.848;2023-06-04T02:24:12;100077.00;;;15.15;56.26
47785;BME280;35233;55.686;37.848;2023-06-04T02:26:37;100083.22;;;15.15;56.74
47785;BME280;35233;55.686;37.848;2023-06-04T02:29:03;100088.41;;;15.19;56.37
47785;BME280;35233;55.686;37.848;2023-06-04T02:31:29;100091.06;;;15.19;56.54
47785;BME280;35233;55.686;37.848;2023-06-04T02:33:55;100082.25;;;15.16;56.30
47785;BME280;35233;55.686;37.848;2023-06-04T02:36:21;100092.78;;;15.20;56.10
47785;BME280;35233;55.686;37.848;2023-06-04T02:38:46;100093.84;;;15.15;56.08
47785;BME280;35233;55.686;37.848;2023-06-04T02:41:12;100099.97;;;15.17;56.18
47785;BME280;35233;55.686;37.848;2023-06-04T02:43:37;100102.50;;;15.21;56.23
47785;BME280;35233;55.686;37.848;2023-06-04T02:46:03;100106.84;;;15.23;56.11
47785;BME280;35233;55.686;37.848;2023-06-04T02:48:28;100096.44;;;15.17;56.07
47785;BME280;35233;55.686;37.848;2023-06-04T02:50:56;100114.69;;;15.26;56.07
47785;BME280;35233;55.686;37.848;2023-06-04T02:53:22;100103.34;;;15.21;56.04
47785;BME280;35233;55.686;37.848;2023-06-04T02:55:49;100120.09;;;15.25;56.21
47785;BME280;35233;55.686;37.848;2023-06-04T02:58:16;100127.94;;;15.28;56.06
47785;BME280;35233;55.686;37.848;2023-06-04T03:00:41;100116.66;;;15.21;55.85
47785;BME280;35233;55.686;37.848;2023-06-04T03:03:07;100126.28;;;15.25;56.10
47785;BME280;35233;55.686;37.848;2023-06-04T03:05:33;100128.72;;;15.30;55.75
47785;BME280;35233;55.686;37.848;2023-06-04T03:08:00;100121.91;;;15.24;55.67
47785;BME280;35233;55.686;37.848;2023-06-04T03:10:26;100134.81;;;15.33;55.90
47785;BME280;35233;55.686;37.848;2023-06-04T03:12:51;100136.56;;;15.34;55.83
47785;BME280;35233;55.686;37.848;2023-06-04T03:15:17;100132.03;;;15.36;55.31
47785;BME280;35233;55.686;37.848;2023-06-04T03:17:42;100139.16;;;15.36;55.69
47785;BME280;35233;55.686;37.848;2023-06-04T03:20:10;100152.41;;;15.37;55.88
47785;BME280;35233;55.686;37.848;2023-06-04T03:22:35;100158.59;;;15.38;55.42
47785;BME280;35233;55.686;37.848;2023-06-04T03:25:01;100156.13;;;15.33;55.34
47785;BME280;35233;55.686;37.848;2023-06-04T03:27:27;100164.66;;;15.42;55.23
47785;BME280;35233;55.686;37.848;2023-06-04T03:29:52;100173.56;;;15.40;55.47
47785;BME280;35233;55.686;37.848;2023-06-04T03:32:18;100169.06;;;15.43;55.26
47785;BME280;35233;55.686;37.848;2023-06-04T03:34:44;100171.72;;;15.43;55.06
47785;BME280;35233;55.686;37.848;2023-06-04T03:37:09;100169.88;;;15.45;55.07
47785;BME280;35233;55.686;37.848;2023-06-04T03:39:35;100182.00;;;15.52;55.08
47785;BME280;35233;55.686;37.848;2023-06-04T03:42:01;100176.94;;;15.46;55.20
47785;BME280;35233;55.686;37.848;2023-06-04T03:44:26;100184.78;;;15.49;55.07
47785;BME280;35233;55.686;37.848;2023-06-04T03:46:52;100185.47;;;15.54;55.03
47785;BME280;35233;55.686;37.848;2023-06-04T03:49:17;100189.75;;;15.58;55.20
47785;BME280;35233;55.686;37.848;2023-06-04T03:51:43;100195.06;;;15.58;55.28
47785;BME280;35233;55.686;37.848;2023-06-04T03:54:09;100191.41;;;15.60;55.09
47785;BME280;35233;55.686;37.848;2023-06-04T03:56:35;100190.69;;;15.57;55.10
47785;BME280;35233;55.686;37.848;2023-06-04T03:59:00;100188.59;;;15.65;54.81
47785;BME280;35233;55.686;37.848;2023-06-04T04:01:26;100199.22;;;15.65;54.84
47785;BME280;35233;55.686;37.848;2023-06-04T04:03:52;100195.53;;;15.69;54.95
47785;BME280;35233;55.686;37.848;2023-06-04T04:06:18;100200.00;;;15.69;54.79
47785;BME280;35233;55.686;37.848;2023-06-04T04:08:45;100191.81;;;15.73;54.72
47785;BME280;35233;55.686;37.848;2023-06-04T04:11:11;100199.66;;;15.76;54.89
47785;BME280;35233;55.686;37.848;2023-06-04T04:13:37;100198.75;;;15.77;54.31
47785;BME280;35233;55.686;37.848;2023-06-04T04:16:03;100202.16;;;15.81;54.56
47785;BME280;35233;55.686;37.848;2023-06-04T04:18:35;100197.66;;;15.83;54.60
47785;BME280;35233;55.686;37.848;2023-06-04T04:21:01;100204.56;;;15.87;54.53
47785;BME280;35233;55.686;37.848;2023-06-04T04:23:28;100207.91;;;15.92;54.92
47785;BME280;35233;55.686;37.848;2023-06-04T04:25:54;100205.03;;;15.97;54.43
47785;BME280;35233;55.686;37.848;2023-06-04T04:28:24;100209.34;;;16.01;54.76
47785;BME280;35233;55.686;37.848;2023-06-04T04:30:49;100208.38;;;16.02;54.63
47785;BME280;35233;55.686;37.848;2023-06-04T04:33:15;100214.53;;;16.04;54.23
47785;BME280;35233;55.686;37.848;2023-06-04T04:35:44;100205.69;;;16.03;54.78
47785;BME280;35233;55.686;37.848;2023-06-04T04:38:10;100210.06;;;16.04;54.64
47785;BME280;35233;55.686;37.848;2023-06-04T04:40:36;100217.81;;;16.11;54.87
47785;BME280;35233;55.686;37.848;2023-06-04T04:43:02;100213.19;;;16.14;54.71
47785;BME280;35233;55.686;37.848;2023-06-04T04:45:27;100207.88;;;16.14;54.34
47785;BME280;35233;55.686;37.848;2023-06-04T04:47:53;100224.53;;;16.19;54.60
47785;BME280;35233;55.686;37.848;2023-06-04T04:50:18;100216.69;;;16.16;54.23
47785;BME280;35233;55.686;37.848;2023-06-04T04:52:44;100219.06;;;16.22;54.63
47785;BME280;35233;55.686;37.848;2023-06-04T04:55:10;100222.69;;;16.21;54.42
47785;BME280;35233;55.686;37.848;2023-06-04T04:57:38;100225.09;;;16.27;54.33
47785;BME280;35233;55.686;37.848;2023-06-04T05:00:04;100224.22;;;16.27;53.87
47785;BME280;35233;55.686;37.848;2023-06-04T05:02:31;100229.28;;;16.33;54.32
47785;BME280;35233;55.686;37.848;2023-06-04T05:04:56;100219.63;;;16.30;54.06
47785;BME280;35233;55.686;37.848;2023-06-04T05:07:22;100219.50;;;16.34;54.67
47785;BME280;35233;55.686;37.848;2023-06-04T05:09:48;100229.03;;;16.39;54.58
47785;BME280;35233;55.686;37.848;2023-06-04T05:12:14;100233.38;;;16.42;53.53
47785;BME280;35233;55.686;37.848;2023-06-04T05:14:40;100224.56;;;16.40;53.63
47785;BME280;35233;55.686;37.848;2023-06-04T05:17:07;100220.09;;;16.40;53.53
47785;BME280;35233;55.686;37.848;2023-06-04T05:19:35;100232.16;;;16.49;53.98
47785;BME280;35233;55.686;37.848;2023-06-04T05:22:03;100233.81;;;16.51;53.87
47785;BME280;35233;55.686;37.848;2023-06-04T05:24:28;100236.34;;;16.55;53.76
47785;BME280;35233;55.686;37.848;2023-06-04T05:26:55;100230.97;;;16.56;53.87
47785;BME280;35233;55.686;37.848;2023-06-04T05:29:22;100225.50;;;16.59;53.76
47785;BME280;35233;55.686;37.848;2023-06-04T05:31:48;100238.88;;;16.58;53.20
47785;BME280;35233;55.686;37.848;2023-06-04T05:34:14;100234.22;;;16.63;53.17
47785;BME280;35233;55.686;37.848;2023-06-04T05:36:42;100234.09;;;16.66;53.26
47785;BME280;35233;55.686;37.848;2023-06-04T05:39:08;100231.41;;;16.66;53.05
47785;BME280;35233;55.686;37.848;2023-06-04T05:41:36;100226.81;;;16.69;53.40
47785;BME280;35233;55.686;37.848;2023-06-04T05:44:03;100232.38;;;16.65;52.95
47785;BME280;35233;55.686;37.848;2023-06-04T05:46:28;100225.63;;;16.56;53.22
47785;BME280;35233;55.686;37.848;2023-06-04T05:48:56;100243.31;;;16.59;53.61
47785;BME280;35233;55.686;37.848;2023-06-04T05:51:22;100235.72;;;16.70;53.24
47785;BME280;35233;55.686;37.848;2023-06-04T05:53:48;100240.81;;;16.74;52.75
47785;BME280;35233;55.686;37.848;2023-06-04T05:56:13;100209.63;;;16.56;52.95
47785;BME280;35233;55.686;37.848;2023-06-04T05:58:39;100243.09;;;16.84;52.70
47785;BME280;35233;55.686;37.848;2023-06-04T06:01:05;100233.97;;;16.89;53.05
47785;BME280;35233;55.686;37.848;2023-06-04T06:03:31;100236.34;;;16.95;53.00
47785;BME280;35233;55.686;37.848;2023-06-04T06:05:57;100238.78;;;17.02;52.16
47785;BME280;35233;55.686;37.848;2023-06-04T06:08:46;100242.44;;;16.99;52.49
47785;BME280;35233;55.686;37.848;2023-06-04T06:11:15;100221.56;;;16.88;52.46
47785;BME280;35233;55.686;37.848;2023-06-04T06:13:49;100233.53;;;16.98;52.69
47785;BME280;35233;55.686;37.848;2023-06-04T06:16:18;100225.91;;;16.91;52.26
47785;BME280;35233;55.686;37.848;2023-06-04T06:18:46;100247.88;;;17.16;52.00
47785;BME280;35233;55.686;37.848;2023-06-04T06:21:35;100236.16;;;17.19;51.92
47785;BME280;35233;55.686;37.848;2023-06-04T06:24:01;100222.31;;;17.11;51.98
47785;BME280;35233;55.686;37.848;2023-06-04T06:26:57;100249.66;;;17.16;52.38
47785;BME280;35233;55.686;37.848;2023-06-04T06:29:29;100231.19;;;17.11;52.18
47785;BME280;35233;55.686;37.848;2023-06-04T06:31:55;100201.06;;;16.89;52.11
47785;BME280;35233;55.686;37.848;2023-06-04T06:34:20;100255.97;;;17.34;51.64
47785;BME280;35233;55.686;37.848;2023-06-04T06:36:46;100253.00;;;17.40;52.16
47785;BME280;35233;55.686;37.848;2023-06-04T06:39:12;100256.53;;;17.40;51.52
47785;BME280;35233;55.686;37.848;2023-06-04T06:41:38;100257.28;;;17.63;51.67
47785;BME280;35233;55.686;37.848;2023-06-04T06:44:06;100251.53;;;17.71;51.16
47785;BME280;35233;55.686;37.848;2023-06-04T06:46:32;100236.38;;;17.71;51.17
47785;BME280;35233;55.686;37.848;2023-06-04T06:48:57;100235.88;;;17.82;50.77
47785;BME280;35233;55.686;37.848;2023-06-04T06:51:23;100230.53;;;17.82;50.70
47785;BME280;35233;55.686;37.848;2023-06-04T06:53:49;100244.41;;;17.90;50.99
47785;BME280;35233;55.686;37.848;2023-06-04T06:56:18;100243.44;;;17.91;50.80
47785;BME280;35233;55.686;37.848;2023-06-04T06:58:44;100251.78;;;17.85;50.75
47785;BME280;35233;55.686;37.848;2023-06-04T07:01:10;100240.44;;;17.80;50.66
47785;BME280;35233;55.686;37.848;2023-06-04T07:03:36;100253.41;;;18.06;50.49
47785;BME280;35233;55.686;37.848;2023-06-04T07:06:03;100242.41;;;18.13;50.37
47785;BME280;35233;55.686;37.848;2023-06-04T07:08:28;100237.06;;;18.13;50.29
47785;BME280;35233;55.686;37.848;2023-06-04T07:10:54;100251.22;;;18.32;49.81
47785;BME280;35233;55.686;37.848;2023-06-04T07:13:21;100254.19;;;18.26;49.69
47785;BME280;35233;55.686;37.848;2023-06-04T07:15:46;100262.22;;;18.26;50.15
47785;BME280;35233;55.686;37.848;2023-06-04T07:18:15;100245.47;;;18.22;49.84
47785;BME280;35233;55.686;37.848;2023-06-04T07:20:40;100229.75;;;18.16;49.77
47785;BME280;35233;55.686;37.848;2023-06-04T07:23:09;100253.13;;;18.30;49.62
47785;BME280;35233;55.686;37.848;2023-06-04T07:25:35;100254.38;;;18.40;49.90
47785;BME280;35233;55.686;37.848;2023-06-04T07:28:01;100253.34;;;18.25;49.98
47785;BME280;35233;55.686;37.848;2023-06-04T07:30:29;100259.16;;;18.33;49.81
47785;BME280;35233;55.686;37.848;2023-06-04T07:32:56;100263.81;;;18.30;50.16
47785;BME280;35233;55.686;37.848;2023-06-04T07:35:21;100258.22;;;18.35;49.97
47785;BME280;35233;55.686;37.848;2023-06-04T07:37:47;100248.38;;;18.35;49.70
47785;BME280;35233;55.686;37.848;2023-06-04T07:40:14;100248.53;;;18.32;49.90
47785;BME280;35233;55.686;37.848;2023-06-04T07:42:41;100254.34;;;18.23;50.08
47785;BME280;35233;55.686;37.848;2023-06-04T07:45:08;100254.66;;;18.17;50.21
47785;BME280;35233;55.686;37.848;2023-06-04T07:47:37;100256.22;;;18.21;50.03
47785;BME280;35233;55.686;37.848;2023-06-04T07:50:04;100254.03;;;18.12;50.86
47785;BME280;35233;55.686;37.848;2023-06-04T07:52:30;100257.28;;;18.18;50.11
47785;BME280;35233;55.686;37.848;2023-06-04T07:54:55;100255.16;;;18.25;49.89
47785;BME280;35233;55.686;37.848;2023-06-04T07:57:22;100249.66;;;18.28;49.78
47785;BME280;35233;55.686;37.848;2023-06-04T07:59:48;100251.78;;;18.39;49.86
47785;BME280;35233;55.686;37.848;2023-06-04T08:02:13;100251.53;;;18.43;49.72
47785;BME280;35233;55.686;37.848;2023-06-04T08:04:40;100269.56;;;18.57;49.91
47785;BME280;35233;55.686;37.848;2023-06-04T08:07:06;100263.09;;;18.61;49.91
47785;BME280;35233;55.686;37.848;2023-06-04T08:09:31;100248.00;;;18.60;49.97
47785;BME280;35233;55.686;37.848;2023-06-04T08:11:57;100263.03;;;18.63;50.02
47785;BME280;35233;55.686;37.848;2023-06-04T08:14:23;100263.41;;;18.55;49.84
47785;BME280;35233;55.686;37.848;2023-06-04T08:16:52;100273.25;;;18.54;50.09
47785;BME280;35233;55.686;37.848;2023-06-04T08:19:18;100276.41;;;18.45;50.43
47785;BME280;35233;55.686;37.848;2023-06-04T08:21:43;100267.84;;;18.39;50.72
47785;BME280;35233;55.686;37.848;2023-06-04T08:24:10;100272.59;;;18.32;50.01
47785;BME280;35233;55.686;37.848;2023-06-04T08:26:36;100268.84;;;18.36;50.54
47785;BME280;35233;55.686;37.848;2023-06-04T08:29:02;100278.22;;;18.45;50.12
47785;BME280;35233;55.686;37.848;2023-06-04T08:31:32;100269.00;;;18.68;49.81
47785;BME280;35233;55.686;37.848;2023-06-04T08:33:58;100265.41;;;18.86;49.48
47785;BME280;35233;55.686;37.848;2023-06-04T08:36:24;100268.72;;;18.74;49.96
47785;BME280;35233;55.686;37.848;2023-06-04T08:38:50;100276.63;;;18.58;50.31
47785;BME280;35233;55.686;37.848;2023-06-04T08:41:34;100270.34;;;18.59;50.40
47785;BME280;35233;55.686;37.848;2023-06-04T08:44:06;100266.50;;;18.47;50.32
47785;BME280;35233;55.686;37.848;2023-06-04T08:46:32;100250.44;;;18.30;50.80
47785;BME280;35233;55.686;37.848;2023-06-04T08:49:12;100268.16;;;18.32;50.84
47785;BME280;35233;55.686;37.848;2023-06-04T08:51:41;100258.69;;;18.25;50.70
47785;BME280;35233;55.686;37.848;2023-06-04T08:54:41;100263.97;;;18.27;50.93
47785;BME280;35233;55.686;37.848;2023-06-04T08:57:10;100276.09;;;18.34;50.74
47785;BME280;35233;55.686;37.848;2023-06-04T08:59:36;100265.75;;;18.26;50.57
47785;BME280;35233;55.686;37.848;2023-06-04T09:02:04;100282.22;;;18.36;50.69
47785;BME280;35233;55.686;37.848;2023-06-04T09:04:31;100275.94;;;18.37;50.45
47785;BME280;35233;55.686;37.848;2023-06-04T09:07:01;100279.00;;;18.47;50.47
47785;BME280;35233;55.686;37.848;2023-06-04T09:09:28;100282.25;;;18.53;50.48
47785;BME280;35233;55.686;37.848;2023-06-04T09:11:56;100274.38;;;18.68;50.32
47785;BME280;35233;55.686;37.848;2023-06-04T09:14:25;100279.13;;;18.80;50.22
47785;BME280;35233;55.686;37.848;2023-06-04T09:16:53;100280.19;;;18.93;50.03
47785;BME280;35233;55.686;37.848;2023-06-04T09:19:23;100275.13;;;19.05;50.01
47785;BME280;35233;55.686;37.848;2023-06-04T09:21:53;100271.94;;;19.14;49.68
47785;BME280;35233;55.686;37.848;2023-06-04T09:24:20;100277.00;;;19.20;49.66
47785;BME280;35233;55.686;37.848;2023-06-04T09:26:47;100260.94;;;19.20;49.69
47785;BME280;35233;55.686;37.848;2023-06-04T09:29:14;100268.69;;;19.25;49.76
47785;BME280;35233;55.686;37.848;2023-06-04T09:31:39;100277.59;;;19.25;49.72
47785;BME280;35233;55.686;37.848;2023-06-04T09:34:06;100277.94;;;19.19;49.74
47785;BME280;35233;55.686;37.848;2023-06-04T09:36:35;100277.06;;;19.18;49.71
47785;BME280;35233;55.686;37.848;2023-06-04T09:39:14;100283.56;;;19.14;49.62
47785;BME280;35233;55.686;37.848;2023-06-04T09:41:40;100280.66;;;19.02;49.98
47785;BME280;35233;55.686;37.848;2023-06-04T09:44:06;100290.28;;;18.88;50.08
47785;BME280;35233;55.686;37.848;2023-06-04T09:46:36;100281.00;;;18.78;50.22
47785;BME280;35233;55.686;37.848;2023-06-04T09:49:03;100282.09;;;18.74;50.32
47785;BME280;35233;55.686;37.848;2023-06-04T09:51:30;100283.94;;;18.73;50.29
47785;BME280;35233;55.686;37.848;2023-06-04T09:54:03;100259.22;;;18.67;50.11
47785;BME280;35233;55.686;37.848;2023-06-04T09:56:29;100278.56;;;18.91;49.70
47785;BME280;35233;55.686;37.848;2023-06-04T09:58:56;100277.56;;;19.09;49.46
47785;BME280;35233;55.686;37.848;2023-06-04T10:01:23;100281.06;;;19.27;48.92
47785;BME280;35233;55.686;37.848;2023-06-04T10:03:52;100283.84;;;19.41;49.08
47785;BME280;35233;55.686;37.848;2023-06-04T10:06:22;100295.72;;;19.53;48.82
47785;BME280;35233;55.686;37.848;2023-06-04T10:08:49;100284.59;;;19.61;48.02
47785;BME280;35233;55.686;37.848;2023-06-04T10:11:19;100275.66;;;19.60;48.24
47785;BME280;35233;55.686;37.848;2023-06-04T10:13:54;100264.25;;;19.57;47.71
47785;BME280;35233;55.686;37.848;2023-06-04T10:16:23;100285.50;;;19.60;48.09
47785;BME280;35233;55.686;37.848;2023-06-04T10:18:52;100287.25;;;19.61;47.96
47785;BME280;35233;55.686;37.848;2023-06-04T10:21:20;100285.19;;;19.66;47.70
47785;BME280;35233;55.686;37.848;2023-06-04T10:23:46;100266.09;;;19.72;47.59
47785;BME280;35233;55.686;37.848;2023-06-04T10:26:15;100264.56;;;19.84;47.26
47785;BME280;35233;55.686;37.848;2023-06-04T10:28:42;100268.84;;;19.86;46.90
47785;BME280;35233;55.686;37.848;2023-06-04T10:31:11;100274.84;;;20.07;46.55
47785;BME280;35233;55.686;37.848;2023-06-04T10:33:39;100264.78;;;20.11;46.68
47785;BME280;35233;55.686;37.848;2023-06-04T10:36:20;100281.22;;;20.05;46.48
47785;BME280;35233;55.686;37.848;2023-06-04T10:38:47;100281.66;;;19.97;46.84
47785;BME280;35233;55.686;37.848;2023-06-04T10:41:14;100274.56;;;19.80;47.21
47785;BME280;35233;55.686;37.848;2023-06-04T10:43:45;100276.97;;;19.69;47.09
47785;BME280;35233;55.686;37.848;2023-06-04T10:46:15;100271.19;;;19.61;47.41
47785;BME280;35233;55.686;37.848;2023-06-04T10:48:51;100254.22;;;19.44;47.94
47785;BME280;35233;55.686;37.848;2023-06-04T10:51:32;100263.31;;;19.58;47.46
47785;BME280;35233;55.686;37.848;2023-06-04T10:53:58;100272.75;;;19.65;46.76
47785;BME280;35233;55.686;37.848;2023-06-04T10:56:31;100272.25;;;19.74;47.03
47785;BME280;35233;55.686;37.848;2023-06-04T10:58:58;100265.78;;;19.78;46.71
47785;BME280;35233;55.686;37.848;2023-06-04T11:01:43;100268.28;;;19.81;46.76
47785;BME280;35233;55.686;37.848;2023-06-04T11:04:22;100264.38;;;19.87;46.79
47785;BME280;35233;55.686;37.848;2023-06-04T11:07:00;100266.34;;;19.83;46.86
47785;BME280;35233;55.686;37.848;2023-06-04T11:09:27;100274.31;;;19.85;46.67
47785;BME280;35233;55.686;37.848;2023-06-04T11:11:57;100267.31;;;19.82;46.58
47785;BME280;35233;55.686;37.848;2023-06-04T11:14:23;100272.84;;;19.79;46.47
47785;BME280;35233;55.686;37.848;2023-06-04T11:16:48;100278.56;;;19.73;46.86
47785;BME280;35233;55.686;37.848;2023-06-04T11:19:14;100281.72;;;19.64;46.55
47785;BME280;35233;55.686;37.848;2023-06-04T11:21:42;100261.47;;;19.42;46.76
47785;BME280;35233;55.686;37.848;2023-06-04T11:24:12;100273.81;;;19.45;46.88
47785;BME280;35233;55.686;37.848;2023-06-04T11:26:38;100281.44;;;19.53;46.69
47785;BME280;35233;55.686;37.848;2023-06-04T11:29:09;100281.00;;;19.60;46.33
47785;BME280;35233;55.686;37.848;2023-06-04T11:31:47;100283.81;;;19.75;46.28
47785;BME280;35233;55.686;37.848;2023-06-04T11:34:25;100274.38;;;19.83;46.07
47785;BME280;35233;55.686;37.848;2023-06-04T11:36:52;100273.28;;;19.87;46.10
47785;BME280;35233;55.686;37.848;2023-06-04T11:39:19;100280.47;;;19.87;45.95
47785;BME280;35233;55.686;37.848;2023-06-04T11:41:49;100276.22;;;19.83;45.25
47785;BME280;35233;55.686;37.848;2023-06-04T11:44:18;100279.34;;;19.75;46.14
47785;BME280;35233;55.686;37.848;2023-06-04T11:46:44;100275.38;;;19.66;46.28
47785;BME280;35233;55.686;37.848;2023-06-04T11:49:17;100278.59;;;19.56;46.52
47785;BME280;35233;55.686;37.848;2023-06-04T11:51:51;100279.03;;;19.64;46.10
47785;BME280;35233;55.686;37.848;2023-06-04T11:54:21;100272.06;;;19.77;45.85
47785;BME280;35233;55.686;37.848;2023-06-04T11:56:51;100264.63;;;19.82;45.90
47785;BME280;35233;55.686;37.848;2023-06-04T11:59:17;100271.19;;;19.77;46.12
47785;BME280;35233;55.686;37.848;2023-06-04T12:01:44;100281.31;;;19.72;46.16
47785;BME280;35233;55.686;37.848;2023-06-04T12:04:17;100283.56;;;19.63;46.34
47785;BME280;35233;55.686;37.848;2023-06-04T12:06:53;100277.56;;;19.58;45.76
47785;BME280;35233;55.686;37.848;2023-06-04T12:09:20;100279.56;;;19.55;45.94
47785;BME280;35233;55.686;37.848;2023-06-04T12:11:50;100279.63;;;19.53;46.19
47785;BME280;35233;55.686;37.848;2023-06-04T12:14:17;100269.09;;;19.50;46.31
47785;BME280;35233;55.686;37.848;2023-06-04T12:16:57;100283.19;;;19.54;45.57
47785;BME280;35233;55.686;37.848;2023-06-04T12:19:23;100280.44;;;19.55;45.76
47785;BME280;35233;55.686;37.848;2023-06-04T12:22:05;100291.72;;;19.60;45.64
47785;BME280;35233;55.686;37.848;2023-06-04T12:24:33;100273.88;;;19.61;45.04
47785;BME280;35233;55.686;37.848;2023-06-04T12:27:06;100282.03;;;19.75;45.37
47785;BME280;35233;55.686;37.848;2023-06-04T12:29:34;100283.22;;;19.70;45.41
47785;BME280;35233;55.686;37.848;2023-06-04T12:32:06;100278.25;;;19.62;45.57
47785;BME280;35233;55.686;37.848;2023-06-04T12:34:37;100277.81;;;19.54;45.44
47785;BME280;35233;55.686;37.848;2023-06-04T12:37:03;100279.88;;;19.49;45.56
47785;BME280;35233;55.686;37.848;2023-06-04T12:39:34;100271.25;;;19.43;45.89
47785;BME280;35233;55.686;37.848;2023-06-04T12:42:02;100289.50;;;19.53;45.63
47785;BME280;35233;55.686;37.848;2023-06-04T12:44:28;100286.38;;;19.60;45.94
47785;BME280;35233;55.686;37.848;2023-06-04T12:46:54;100279.97;;;19.63;44.89
47785;BME280;35233;55.686;37.848;2023-06-04T12:49:20;100288.59;;;19.70;45.16